Portada
METAR-TAF:

METAR-TAF

Aeroports :

Plataforma petroliera

Sleipner, Noruega

latitud: 58-22-00N, longitud: 001-54-25E, altitud: 50 m

Observació

L'informe es va fer fa 14 minuts, a les 09:50 UTC
Vent 21 kt del Sud-Oest
Temperatura 14°C
Humitat 82%
Pressió 1013 hPa
Visibilitat 10 km o més

METAR: ENSL 220950Z AUTO 23021KT 9999NDV FEW014/// 14/11 Q1013 W13/S4

Hora: 12:04 (10:04 UTC)


TAF: manca

Observacions i pronòstics meteorològics de més de 4000 aeroports (METAR i TAF).

Les estacions disponibles són els punts grocs i vermells al mapa.

Posi el ratolí al punt desitjat per veure el nom de l'estació.

Feu clic per veure les observacions i els pronòstics meteorològics.

Per canviar el mapa: feu clic els botons verds amb una creu de color negre per apropar; al botó verd amb un guió per allunyar la imatge; o en les fletxes verdes per a mapes adjacents.


METAR-TAF: